Time;durP1;ratioP1;P1;durP2;ratioP2;P2;SDS_P1;SDS_P2;PMS_P1;PMS_P2;Temp;Humidity;BMP_temperature;BMP_pressure;BME280_temperature;BME280_humidity;BME280_pressure;Samples;Min_cycle;Max_cycle;Signal;HPM_P1;HPM_P2
2021/07/30 00:00:56;;;;;;;24.08;9.50;;;;;;;13.48;69.58;100954.97;5072362;28;20021;-61
2021/07/30 00:03:22;;;;;;;24.83;9.60;;;;;;;13.47;69.76;100955.88;5068421;28;20032;-61
2021/07/30 00:05:51;;;;;;;23.90;9.52;;;;;;;13.51;69.50;100956.72;5071945;28;20390;-61
2021/07/30 00:08:18;;;;;;;25.98;9.40;;;;;;;13.51;69.56;100957.59;5072493;28;20039;-62
2021/07/30 00:10:43;;;;;;;23.65;9.30;;;;;;;13.48;69.72;100962.94;5072984;28;20032;-62
2021/07/30 00:13:09;;;;;;;23.60;9.27;;;;;;;13.48;69.72;100956.75;5072044;28;20044;-62
2021/07/30 00:15:34;;;;;;;25.23;9.48;;;;;;;13.46;69.88;100956.75;5072471;28;20021;-61
2021/07/30 00:17:59;;;;;;;23.33;9.57;;;;;;;13.43;70.11;100959.44;5072333;28;20029;-62
2021/07/30 00:20:25;;;;;;;26.00;9.45;;;;;;;13.44;70.00;100955.91;5071973;28;20107;-62
2021/07/30 00:22:50;;;;;;;25.33;9.95;;;;;;;13.42;70.35;100953.22;5072934;28;20026;-62
2021/07/30 00:25:15;;;;;;;25.13;9.85;;;;;;;13.42;70.34;100949.69;5087323;28;20016;-62
2021/07/30 00:27:42;;;;;;;23.40;9.73;;;;;;;13.43;70.11;100938.19;5085849;28;20043;-61
2021/07/30 00:30:08;;;;;;;24.48;10.00;;;;;;;13.33;70.75;100947.94;5075287;28;20029;-61
2021/07/30 00:32:33;;;;;;;24.27;9.57;;;;;;;13.32;70.76;100939.97;5075407;28;20040;-62
2021/07/30 00:34:59;;;;;;;26.20;9.68;;;;;;;13.32;70.60;100942.63;5075280;28;20035;-61
2021/07/30 00:37:24;;;;;;;24.30;9.27;;;;;;;13.31;70.55;100944.41;5075384;28;20028;-61
2021/07/30 00:39:49;;;;;;;23.55;9.55;;;;;;;13.33;70.92;100947.94;5075342;28;20029;-61
2021/07/30 00:42:15;;;;;;;24.65;9.70;;;;;;;13.35;70.92;100938.25;5075069;28;20044;-61
2021/07/30 00:44:40;;;;;;;24.90;9.45;;;;;;;13.30;70.95;100941.78;5075384;28;20031;-61
2021/07/30 00:47:05;;;;;;;25.67;10.02;;;;;;;13.34;71.26;100938.19;5075093;28;20025;-61
2021/07/30 00:49:31;;;;;;;25.77;10.13;;;;;;;13.34;71.30;100932.88;5074983;28;20048;-61
2021/07/30 00:51:57;;;;;;;25.02;9.38;;;;;;;13.32;71.40;100935.53;5075367;28;20032;-61
2021/07/30 00:54:24;;;;;;;24.83;10.02;;;;;;;13.30;71.74;100936.47;5074852;28;20031;-61
2021/07/30 00:56:52;;;;;;;24.67;9.90;;;;;;;13.31;72.04;100933.81;5075109;28;20023;-61
2021/07/30 00:59:17;;;;;;;25.75;9.68;;;;;;;13.20;72.26;100936.50;5074646;28;20109;-61
2021/07/30 01:01:43;;;;;;;24.45;9.45;;;;;;;13.16;72.78;100937.41;5074985;28;20025;-62
2021/07/30 01:04:08;;;;;;;25.15;9.98;;;;;;;13.11;74.08;100935.69;5074622;28;20375;-61
2021/07/30 01:06:34;;;;;;;25.50;9.48;;;;;;;13.17;72.85;100936.50;5075004;28;20042;-63
2021/07/30 01:08:59;;;;;;;24.70;9.40;;;;;;;13.20;73.08;100940.94;5074869;28;20026;-62
2021/07/30 01:11:24;;;;;;;26.10;9.40;;;;;;;13.14;72.88;100944.50;5074592;28;20429;-65
2021/07/30 01:13:50;;;;;;;26.17;9.68;;;;;;;13.20;73.13;100935.63;5074585;28;20028;-63
2021/07/30 01:16:15;;;;;;;25.63;9.43;;;;;;;13.18;73.16;100938.28;5074557;28;20032;-62
2021/07/30 01:18:40;;;;;;;24.75;9.65;;;;;;;13.18;73.05;100935.63;5074378;28;20376;-70
2021/07/30 01:21:18;;;;;;;24.15;10.02;;;;;;;13.14;72.97;100935.66;5074618;28;20464;-74
2021/07/30 01:23:45;;;;;;;26.27;10.05;;;;;;;13.06;74.13;100939.22;5074397;28;20070;-78
2021/07/30 01:26:10;;;;;;;26.02;9.90;;;;;;;13.03;74.28;100939.25;5074300;28;20027;-70
2021/07/30 01:28:35;;;;;;;25.40;9.70;;;;;;;12.99;74.84;100939.25;5074340;28;20103;-75
2021/07/30 01:31:03;;;;;;;24.27;9.93;;;;;;;13.00;74.75;100941.00;5074162;28;20035;-70
2021/07/30 01:33:29;;;;;;;27.25;10.43;;;;;;;12.92;75.66;100941.06;5074363;28;20072;-69
2021/07/30 01:35:54;;;;;;;26.27;10.02;;;;;;;12.90;75.62;100933.09;5073397;28;20407;-71
2021/07/30 01:38:19;;;;;;;24.75;9.57;;;;;;;12.86;75.87;100939.31;5074116;28;20040;-68
2021/07/30 01:40:44;;;;;;;25.65;10.38;;;;;;;12.78;76.81;100938.44;5074068;28;20038;-75
2021/07/30 01:43:10;;;;;;;25.52;10.07;;;;;;;12.75;76.88;100933.16;5074157;28;20021;-69
2021/07/30 01:45:35;;;;;;;25.52;10.30;;;;;;;12.81;76.72;100926.94;5073794;28;20032;-73
2021/07/30 01:48:00;;;;;;;26.17;10.25;;;;;;;12.75;76.89;100932.28;5074119;28;20075;-73
2021/07/30 01:50:26;;;;;;;27.30;10.70;;;;;;;12.72;77.06;100923.41;5074208;28;20032;-69
2021/07/30 01:52:51;;;;;;;23.20;10.02;;;;;;;12.69;77.97;100919.91;5074074;28;20101;-75
2021/07/30 01:55:16;;;;;;;25.45;10.80;;;;;;;12.68;78.44;100915.47;5079089;28;20021;-67
2021/07/30 01:57:41;;;;;;;26.42;11.02;;;;;;;12.70;77.82;100913.72;5079010;28;20062;-70
2021/07/30 02:00:07;;;;;;;26.13;10.80;;;;;;;12.70;77.91;100914.59;5078366;28;20079;-70
2021/07/30 02:02:33;;;;;;;25.33;11.18;;;;;;;12.62;79.14;100919.03;5078685;28;20024;-82
2021/07/30 02:05:00;;;;;;;27.17;10.70;;;;;;;12.64;78.62;100922.59;5075338;28;20052;-73
2021/07/30 02:07:26;;;;;;;26.27;11.00;;;;;;;12.65;78.59;100920.81;5074112;28;20060;-70
2021/07/30 02:09:51;;;;;;;25.85;10.93;;;;;;;12.59;78.75;100920.81;5078317;28;20020;-69
2021/07/30 02:12:16;;;;;;;25.38;10.85;;;;;;;12.65;79.34;100918.16;5078071;28;20086;-74
2021/07/30 02:14:42;;;;;;;23.20;10.23;;;;;;;12.60;79.65;100914.66;5077389;28;20098;-68
2021/07/30 02:17:07;;;;;;;23.88;9.93;;;;;;;12.59;80.21;100920.81;5077889;28;20025;-69
2021/07/30 02:19:32;;;;;;;26.02;10.63;;;;;;;12.57;80.66;100920.84;5077616;28;20104;-74
2021/07/30 02:21:58;;;;;;;25.23;10.70;;;;;;;12.52;80.64;100910.25;5072492;28;20036;-62
2021/07/30 02:24:26;;;;;;;27.15;11.70;;;;;;;12.45;81.16;100912.91;5074742;28;20112;-62
2021/07/30 02:26:54;;;;;;;26.08;11.23;;;;;;;12.40;81.59;100904.94;5077223;28;20025;-61
2021/07/30 02:29:20;;;;;;;26.73;11.07;;;;;;;12.43;81.62;100910.25;5076450;28;20379;-62
2021/07/30 02:31:48;;;;;;;25.45;11.10;;;;;;;12.43;81.48;100907.59;5076411;28;20050;-61
2021/07/30 02:34:14;;;;;;;25.27;10.85;;;;;;;12.45;81.58;100908.50;5076692;28;20054;-62
2021/07/30 02:36:39;;;;;;;26.77;11.10;;;;;;;12.43;81.61;100904.06;5075467;28;20039;-62
2021/07/30 02:39:04;;;;;;;30.33;11.77;;;;;;;12.41;82.22;100896.13;5073550;28;20040;-63
2021/07/30 02:41:30;;;;;;;26.73;11.55;;;;;;;12.34;83.37;100895.25;5072837;28;20021;-64
2021/07/30 02:43:56;;;;;;;24.73;10.60;;;;;;;12.36;82.73;100897.88;5072817;28;20027;-62
2021/07/30 02:46:21;;;;;;;25.65;11.38;;;;;;;12.30;83.34;100897.91;5071183;28;20394;-61
2021/07/30 02:48:47;;;;;;;26.67;11.77;;;;;;;12.25;83.28;100894.41;5072562;28;20032;-62
2021/07/30 02:51:13;;;;;;;24.67;11.20;;;;;;;12.16;84.06;100903.25;5072600;28;20467;-62
2021/07/30 02:53:39;;;;;;;27.05;11.60;;;;;;;12.14;84.27;100897.91;5073001;28;20036;-63
2021/07/30 02:56:06;;;;;;;25.83;11.40;;;;;;;12.00;84.89;100899.72;5072859;28;20408;-61
2021/07/30 02:58:31;;;;;;;25.73;11.43;;;;;;;12.09;84.42;100890.91;5072638;28;20447;-64
2021/07/30 03:00:58;;;;;;;25.30;11.60;;;;;;;11.94;84.83;100891.75;5072698;28;20102;-67
2021/07/30 03:03:23;;;;;;;23.70;10.75;;;;;;;11.92;84.88;100886.44;5068457;28;20036;-67
2021/07/30 03:05:48;;;;;;;24.92;11.32;;;;;;;11.96;85.71;100885.59;5072687;28;20100;-66
2021/07/30 03:08:14;;;;;;;26.85;11.90;;;;;;;11.86;86.02;100875.84;5072742;28;20028;-67
2021/07/30 03:10:39;;;;;;;26.42;12.02;;;;;;;11.79;86.77;100874.97;5072672;28;20096;-67
2021/07/30 03:13:04;;;;;;;27.63;12.38;;;;;;;11.89;86.95;100878.50;5072495;28;20039;-72
2021/07/30 03:15:30;;;;;;;28.23;13.38;;;;;;;12.01;86.82;100875.88;5072577;28;20047;-67
2021/07/30 03:17:55;;;;;;;27.63;12.93;;;;;;;12.08;86.70;100870.56;5072360;28;20107;-66
2021/07/30 03:20:20;;;;;;;25.92;13.00;;;;;;;12.19;86.52;100867.00;5072464;28;20387;-67
2021/07/30 03:22:46;;;;;;;28.20;12.98;;;;;;;12.26;86.15;100857.28;5072270;28;20020;-69
2021/07/30 03:25:11;;;;;;;28.85;13.02;;;;;;;12.31;85.31;100857.28;5072338;28;20052;-67
2021/07/30 03:27:37;;;;;;;28.52;13.32;;;;;;;12.29;86.28;100859.94;5072495;28;20077;-67
2021/07/30 03:30:03;;;;;;;27.30;13.05;;;;;;;12.29;86.73;100859.03;5072476;28;20020;-67
2021/07/30 03:32:29;;;;;;;27.63;12.50;;;;;;;12.31;85.46;100862.56;5072406;28;20032;-65
2021/07/30 03:34:54;;;;;;;26.63;12.15;;;;;;;12.33;85.37;100859.03;5072644;28;20035;-67
2021/07/30 03:37:19;;;;;;;27.25;12.70;;;;;;;12.34;85.33;100862.56;5072401;28;20020;-67
2021/07/30 03:39:45;;;;;;;30.60;13.30;;;;;;;12.27;86.68;100861.69;5072330;28;20382;-68
2021/07/30 03:42:10;;;;;;;28.55;13.18;;;;;;;12.33;86.07;100859.03;5072028;28;20027;-68
2021/07/30 03:44:36;;;;;;;26.75;12.88;;;;;;;12.23;87.63;100854.63;5072058;28;20029;-62
2021/07/30 03:47:01;;;;;;;26.77;12.95;;;;;;;12.23;87.54;100856.41;5070470;28;20036;-62
2021/07/30 03:49:27;;;;;;;28.83;12.82;;;;;;;12.29;86.22;100846.69;5071959;28;20021;-62
2021/07/30 03:51:52;;;;;;;26.50;12.02;;;;;;;12.28;86.74;100849.34;5072227;28;20062;-63
2021/07/30 03:54:18;;;;;;;27.17;12.40;;;;;;;12.26;86.92;100852.00;5072053;28;20154;-63
2021/07/30 03:56:44;;;;;;;27.45;12.25;;;;;;;12.28;86.78;100857.28;5072287;28;20522;-61
2021/07/30 03:59:09;;;;;;;26.67;12.70;;;;;;;12.29;86.51;100861.69;5072527;28;20098;-64
2021/07/30 04:01:35;;;;;;;28.13;12.52;;;;;;;12.31;86.63;100847.53;5076182;28;20020;-62
2021/07/30 04:04:00;;;;;;;26.40;12.45;;;;;;;12.29;87.53;100843.13;5075962;28;20100;-65
2021/07/30 04:06:26;;;;;;;26.23;12.93;;;;;;;12.34;86.55;100850.19;5075918;28;20020;-63
2021/07/30 04:08:51;;;;;;;25.95;12.50;;;;;;;12.29;87.92;100845.78;5075928;28;20047;-62
2021/07/30 04:11:17;;;;;;;27.55;12.10;;;;;;;12.27;88.48;100855.50;5075721;28;20078;-63
2021/07/30 04:13:43;;;;;;;28.45;13.10;;;;;;;12.19;88.66;100850.25;5075416;28;20032;-64
2021/07/30 04:16:08;;;;;;;27.30;12.73;;;;;;;12.21;88.79;100851.09;5075847;28;20029;-61
2021/07/30 04:18:34;;;;;;;25.60;12.32;;;;;;;12.18;88.99;100846.69;5075559;28;20074;-62
2021/07/30 04:21:03;;;;;;;25.60;12.02;;;;;;;12.18;89.53;100851.13;5075991;28;20539;-61
2021/07/30 04:23:29;;;;;;;28.55;11.85;;;;;;;12.18;89.09;100854.63;5077924;28;20541;-62
2021/07/30 04:25:54;;;;;;;26.13;12.27;;;;;;;12.30;89.14;100850.19;5089818;28;20051;-61
2021/07/30 04:28:19;;;;;;;25.75;11.52;;;;;;;12.41;88.74;100850.16;5085874;28;20032;-61
2021/07/30 04:30:45;;;;;;;30.95;12.70;;;;;;;12.50;88.26;100843.06;5075505;28;20378;-61
2021/07/30 04:33:10;;;;;;;28.58;12.02;;;;;;;12.52;88.26;100836.00;5075497;28;20201;-61
2021/07/30 04:35:36;;;;;;;28.00;12.57;;;;;;;12.59;87.76;100839.50;5075345;28;20048;-61
2021/07/30 04:38:02;;;;;;;26.83;12.68;;;;;;;12.70;87.17;100835.03;5073935;28;20051;-61
2021/07/30 04:40:27;;;;;;;27.58;12.45;;;;;;;12.76;87.58;100834.13;5075418;28;20029;-62
2021/07/30 04:42:56;;;;;;;26.48;12.40;;;;;;;12.79;88.11;100839.41;5075156;28;20028;-61
2021/07/30 04:45:22;;;;;;;27.85;12.90;;;;;;;12.85;87.32;100831.41;5075132;28;20027;-61
2021/07/30 04:47:47;;;;;;;27.33;12.65;;;;;;;12.85;88.18;100834.06;5075458;28;20024;-61
2021/07/30 04:50:12;;;;;;;28.13;12.88;;;;;;;12.87;88.02;100840.28;5075073;28;20024;-62
2021/07/30 04:52:38;;;;;;;29.85;13.43;;;;;;;12.94;87.30;100829.63;5074742;28;20128;-62
2021/07/30 04:55:04;;;;;;;28.02;12.52;;;;;;;13.01;88.41;100828.69;5074835;28;20028;-61
2021/07/30 04:57:29;;;;;;;26.02;12.55;;;;;;;13.04;87.88;100834.84;5074994;28;20066;-61
2021/07/30 04:59:55;;;;;;;28.52;13.25;;;;;;;13.10;87.58;100825.97;5074744;28;20055;-62
2021/07/30 05:02:20;;;;;;;28.27;13.10;;;;;;;13.21;86.83;100832.09;5074644;28;20125;-61
2021/07/30 05:04:46;;;;;;;28.38;12.82;;;;;;;13.31;86.77;100817.00;5075476;28;20035;-65
2021/07/30 05:07:11;;;;;;;27.50;12.63;;;;;;;13.39;84.99;100816.97;5068702;28;20475;-63
2021/07/30 05:09:37;;;;;;;27.27;12.80;;;;;;;13.48;85.80;100830.16;5072079;28;20109;-63
2021/07/30 05:12:02;;;;;;;26.58;12.43;;;;;;;13.56;84.98;100820.38;5072884;28;20059;-66
2021/07/30 05:14:27;;;;;;;29.08;13.45;;;;;;;13.69;84.93;100823.78;5068018;28;20028;-62
2021/07/30 05:16:53;;;;;;;28.55;13.18;;;;;;;13.78;83.61;100821.03;5071972;28;20055;-63
2021/07/30 05:19:18;;;;;;;27.98;12.25;;;;;;;13.86;83.11;100812.13;5066043;28;20025;-68
2021/07/30 05:21:43;;;;;;;26.33;12.15;;;;;;;13.98;83.06;100808.47;5072364;28;20039;-62
2021/07/30 05:24:09;;;;;;;27.92;12.75;;;;;;;14.06;83.55;100809.28;5073435;28;20036;-64
2021/07/30 05:26:34;;;;;;;28.10;12.50;;;;;;;14.07;83.37;100808.38;5072137;28;20081;-65
2021/07/30 05:28:59;;;;;;;28.40;11.55;;;;;;;14.12;82.64;100803.88;5074061;28;20445;-63
2021/07/30 05:31:25;;;;;;;28.20;12.38;;;;;;;14.14;82.74;100802.09;5073571;28;20463;-66
2021/07/30 05:33:50;;;;;;;27.33;11.75;;;;;;;14.18;82.38;100808.25;5079856;28;20032;-64
2021/07/30 05:36:18;;;;;;;26.73;11.95;;;;;;;14.21;82.59;100800.25;5078136;28;20020;-66
2021/07/30 05:38:43;;;;;;;27.33;11.32;;;;;;;14.28;81.59;100801.94;5081122;28;20073;-63
2021/07/30 05:41:10;;;;;;;29.75;12.05;;;;;;;14.38;81.26;100805.38;5077955;28;20024;-68
2021/07/30 05:43:36;;;;;;;28.38;11.73;;;;;;;14.47;81.63;100802.59;5080394;28;20526;-67
2021/07/30 05:46:02;;;;;;;28.83;11.88;;;;;;;14.57;80.99;100792.72;5078882;28;20115;-66
2021/07/30 05:48:27;;;;;;;26.50;11.13;;;;;;;14.69;79.85;100802.34;5079133;28;20031;-66
2021/07/30 05:50:52;;;;;;;28.27;11.00;;;;;;;14.78;78.90;100797.78;5081128;28;20028;-65
2021/07/30 05:53:18;;;;;;;27.65;11.10;;;;;;;14.86;78.68;100795.00;5076404;28;20078;-66
2021/07/30 05:55:43;;;;;;;27.95;11.27;;;;;;;14.94;77.89;100787.81;5075914;28;20040;-62
2021/07/30 05:58:08;;;;;;;28.02;10.70;;;;;;;15.12;77.48;100799.97;5078060;28;20063;-66
2021/07/30 06:00:34;;;;;;;26.45;10.65;;;;;;;15.26;77.69;100794.44;5076077;28;20033;-64
2021/07/30 06:02:59;;;;;;;24.92;10.57;;;;;;;15.38;76.96;100790.69;5078293;28;20091;-63
2021/07/30 06:05:24;;;;;;;25.35;10.02;;;;;;;15.57;76.18;100785.06;5077284;28;20024;-65
2021/07/30 06:07:50;;;;;;;29.10;10.77;;;;;;;15.75;75.11;100791.84;5080802;28;20028;-67
2021/07/30 06:10:15;;;;;;;25.27;10.10;;;;;;;15.80;74.33;100784.66;5078976;28;20023;-63
2021/07/30 06:12:40;;;;;;;24.10;10.00;;;;;;;15.99;74.36;100790.56;5078516;28;20356;-65
2021/07/30 06:15:06;;;;;;;26.55;9.60;;;;;;;16.16;72.49;100787.53;5077393;28;20055;-65
2021/07/30 06:17:32;;;;;;;23.55;9.65;;;;;;;16.33;72.09;100785.41;5077462;28;20093;-60
2021/07/30 06:19:57;;;;;;;26.92;9.38;;;;;;;16.49;71.95;100785.97;5078266;28;20028;-63
2021/07/30 06:22:22;;;;;;;26.30;9.30;;;;;;;16.62;71.31;100775.91;5079026;28;20046;-63
2021/07/30 06:24:48;;;;;;;28.48;9.70;;;;;;;16.69;71.13;100782.88;5078428;28;20443;-65
2021/07/30 06:27:15;;;;;;;25.10;9.15;;;;;;;16.74;68.47;100780.97;5076683;28;20476;-65
2021/07/30 06:29:41;;;;;;;24.65;9.00;;;;;;;16.71;69.43;100775.72;5076750;28;20154;-65
2021/07/30 06:32:06;;;;;;;25.23;9.00;;;;;;;16.67;68.98;100789.16;5076531;28;20029;-63
2021/07/30 06:34:32;;;;;;;26.48;9.43;;;;;;;16.68;70.39;100781.13;5078222;28;20032;-65
2021/07/30 06:36:58;;;;;;;25.75;9.70;;;;;;;16.74;71.29;100772.97;5075834;28;20032;-66
2021/07/30 06:39:24;;;;;;;23.02;8.65;;;;;;;16.77;69.65;100772.03;5066718;28;20024;-66
2021/07/30 06:41:49;;;;;;;24.67;9.10;;;;;;;16.80;70.25;100779.09;5071151;28;21306;-65
2021/07/30 06:44:15;;;;;;;22.73;9.20;;;;;;;16.87;71.24;100770.03;5077767;28;20111;-65
2021/07/30 06:46:40;;;;;;;25.17;9.18;;;;;;;16.90;70.30;100770.88;5079150;28;20025;-66
2021/07/30 06:49:06;;;;;;;24.67;9.00;;;;;;;16.99;68.44;100756.41;5079946;28;20040;-61
2021/07/30 06:51:31;;;;;;;22.65;8.77;;;;;;;17.10;69.49;100763.31;5074345;28;20514;-64
2021/07/30 06:53:57;;;;;;;24.08;8.82;;;;;;;17.14;68.86;100764.97;5072752;28;20024;-63
2021/07/30 06:56:22;;;;;;;21.50;8.13;;;;;;;17.31;68.24;100749.41;5073164;28;20016;-66
2021/07/30 06:58:47;;;;;;;25.95;8.48;;;;;;;17.46;67.24;100752.63;5077474;28;20493;-61
2021/07/30 07:01:13;;;;;;;24.30;9.25;;;;;;;17.49;67.71;100748.09;5072719;28;20386;-63
2021/07/30 07:03:38;;;;;;;24.73;8.50;;;;;;;17.65;68.06;100745.91;5068906;28;20489;-65
2021/07/30 07:06:04;;;;;;;25.05;8.82;;;;;;;17.72;66.97;100749.25;5066741;28;20031;-66
2021/07/30 07:08:29;;;;;;;23.35;8.70;;;;;;;17.75;67.50;100749.19;5068949;28;20467;-64
2021/07/30 07:10:54;;;;;;;22.42;8.52;;;;;;;17.75;67.13;100747.41;5071037;28;20025;-62
2021/07/30 07:13:22;;;;;;;22.42;8.40;;;;;;;17.83;66.80;100740.97;5064393;28;20028;-64
2021/07/30 07:15:48;;;;;;;22.13;8.50;;;;;;;17.94;67.70;100736.25;5068955;28;20020;-61
2021/07/30 07:18:13;;;;;;;22.45;8.70;;;;;;;18.15;66.20;100740.09;5068702;28;20043;-61
2021/07/30 07:20:40;;;;;;;23.17;8.57;;;;;;;18.28;65.53;100732.59;5070026;28;20027;-62
2021/07/30 07:23:06;;;;;;;22.65;8.10;;;;;;;18.41;65.10;100735.78;5074643;28;20024;-66
2021/07/30 07:25:31;;;;;;;23.35;8.00;;;;;;;18.26;64.13;100738.00;5073060;28;20034;-65
2021/07/30 07:27:57;;;;;;;22.77;8.32;;;;;;;18.26;65.49;100739.75;5075636;28;20454;-65
2021/07/30 07:30:22;;;;;;;22.70;7.90;;;;;;;18.44;65.04;100738.38;5073675;28;20449;-65
2021/07/30 07:32:48;;;;;;;21.98;7.78;;;;;;;18.52;62.94;100736.31;5067213;28;20032;-65
2021/07/30 07:35:13;;;;;;;24.02;7.72;;;;;;;18.56;62.71;100737.13;5073333;28;20036;-63
2021/07/30 07:37:39;;;;;;;23.35;7.80;;;;;;;18.62;62.13;100734.25;5072880;28;20371;-65
2021/07/30 07:40:06;;;;;;;21.70;7.68;;;;;;;18.68;62.74;100736.72;5073967;28;20531;-65
2021/07/30 07:42:31;;;;;;;22.23;7.85;;;;;;;18.72;62.45;100722.31;5077569;28;20340;-63
2021/07/30 07:44:56;;;;;;;21.58;7.53;;;;;;;18.91;62.45;100732.50;5078386;28;20024;-61
2021/07/30 07:47:22;;;;;;;23.85;7.80;;;;;;;19.01;61.41;100728.59;5080956;28;20032;-65
2021/07/30 07:49:47;;;;;;;21.88;7.57;;;;;;;18.97;61.66;100721.56;5083782;28;20230;-65
2021/07/30 07:52:13;;;;;;;22.40;7.63;;;;;;;18.92;62.47;100718.19;5079667;28;20035;-64
2021/07/30 07:54:38;;;;;;;22.50;7.82;;;;;;;19.12;62.68;100714.81;5083494;28;20103;-65
2021/07/30 07:57:05;;;;;;;22.35;7.53;;;;;;;19.26;61.59;100723.28;5080866;28;20028;-66
2021/07/30 07:59:36;;;;;;;21.67;7.20;;;;;;;19.50;60.16;100720.72;5080645;28;20479;-66
2021/07/30 08:02:04;;;;;;;21.17;7.20;;;;;;;19.67;60.08;100721.00;5079454;28;20162;-63
2021/07/30 08:04:30;;;;;;;21.80;7.30;;;;;;;19.80;59.14;100710.72;5082922;28;20485;-64
2021/07/30 08:06:56;;;;;;;21.42;7.30;;;;;;;19.88;58.60;100714.91;5081997;28;20131;-67
2021/07/30 08:09:21;;;;;;;20.83;6.90;;;;;;;19.87;60.07;100713.19;5079878;28;20486;-66
2021/07/30 08:11:46;;;;;;;22.13;7.10;;;;;;;19.95;56.97;100717.34;5079704;28;20107;-65
2021/07/30 08:14:12;;;;;;;20.08;6.78;;;;;;;19.74;57.48;100710.91;5079884;28;20093;-64
2021/07/30 08:16:37;;;;;;;20.65;6.85;;;;;;;19.64;58.04;100712.16;5080407;28;20025;-61
2021/07/30 08:19:03;;;;;;;20.75;6.72;;;;;;;19.76;57.87;100703.69;5078799;28;20128;-60
2021/07/30 08:21:30;;;;;;;20.50;6.45;;;;;;;19.95;57.93;100695.88;5080546;28;20074;-60
2021/07/30 08:23:56;;;;;;;21.08;7.18;;;;;;;19.98;57.07;100694.88;5079065;28;20027;-61
2021/07/30 08:26:21;;;;;;;21.08;6.72;;;;;;;19.98;57.14;100684.16;5080017;28;20371;-61
2021/07/30 08:28:46;;;;;;;20.23;6.60;;;;;;;20.23;55.80;100677.84;5078036;28;20025;-60
2021/07/30 08:31:12;;;;;;;19.65;5.97;;;;;;;20.55;55.96;100680.16;5076767;28;20021;-61
2021/07/30 08:33:37;;;;;;;19.60;6.22;;;;;;;20.64;55.33;100678.06;5075120;28;20356;-62
2021/07/30 08:36:05;;;;;;;19.88;5.95;;;;;;;20.76;55.01;100688.31;5074135;28;20025;-67
2021/07/30 08:38:30;;;;;;;18.67;5.95;;;;;;;20.76;53.42;100682.94;5075521;28;20035;-61
2021/07/30 08:40:56;;;;;;;19.05;5.90;;;;;;;20.70;53.55;100688.56;5075156;28;20020;-61
2021/07/30 08:43:21;;;;;;;19.20;5.25;;;;;;;20.94;55.49;100677.75;5075089;28;20030;-66
2021/07/30 08:45:50;;;;;;;19.38;5.60;;;;;;;21.25;55.23;100677.34;5074940;28;20024;-66
2021/07/30 08:48:16;;;;;;;18.48;5.32;;;;;;;21.18;52.40;100674.03;5071613;28;20122;-64
2021/07/30 08:50:42;;;;;;;19.02;5.60;;;;;;;21.04;52.81;100673.75;5074856;28;20031;-62
2021/07/30 08:53:09;;;;;;;19.40;5.40;;;;;;;20.92;51.19;100676.97;5075096;28;20025;-62
2021/07/30 08:55:35;;;;;;;19.02;5.50;;;;;;;20.78;53.77;100680.19;5075239;28;20027;-62
2021/07/30 08:58:00;;;;;;;19.90;5.60;;;;;;;20.79;53.72;100673.91;5074724;28;20107;-61
2021/07/30 09:00:26;;;;;;;18.05;5.40;;;;;;;20.93;55.02;100667.97;5074765;28;20048;-61
2021/07/30 09:02:54;;;;;;;18.10;5.40;;;;;;;21.20;52.96;100677.56;5074897;28;20032;-63
2021/07/30 09:05:32;;;;;;;18.50;5.20;;;;;;;21.36;52.20;100671.50;5075062;28;20113;-66
2021/07/30 09:08:03;;;;;;;18.70;5.32;;;;;;;21.41;52.98;100667.66;5074804;28;20066;-61
2021/07/30 09:10:44;;;;;;;16.75;5.20;;;;;;;21.41;52.69;100664.97;5074914;28;20028;-62
2021/07/30 09:13:27;;;;;;;18.77;5.45;;;;;;;21.44;53.49;100658.59;5074572;28;20563;-64
2021/07/30 09:16:04;;;;;;;18.05;5.15;;;;;;;21.57;53.55;100664.34;5072192;28;20074;-61
2021/07/30 09:18:44;;;;;;;20.40;5.82;;;;;;;21.66;52.53;100665.75;5074467;28;20467;-62
2021/07/30 09:21:30;;;;;;;17.52;5.30;;;;;;;21.91;51.87;100644.84;5074653;28;20094;-67
2021/07/30 09:23:56;;;;;;;17.88;5.50;;;;;;;22.07;52.29;100654.91;5072319;28;20030;-61
2021/07/30 09:26:33;;;;;;;18.27;5.25;;;;;;;22.18;50.91;100647.22;5074124;28;20037;-60
2021/07/30 09:29:04;;;;;;;19.88;5.50;;;;;;;22.36;49.17;100641.94;5074318;28;20060;-61
2021/07/30 09:31:47;;;;;;;17.20;5.32;;;;;;;22.27;50.61;100641.38;5074297;28;20028;-62
2021/07/30 09:34:25;;;;;;;18.83;5.50;;;;;;;22.33;50.63;100644.78;5078894;28;20033;-64
2021/07/30 09:36:52;;;;;;;18.48;5.45;;;;;;;22.62;51.00;100636.13;5079481;28;20070;-61
2021/07/30 09:39:20;;;;;;;19.17;5.43;;;;;;;23.33;49.53;100632.59;5076251;28;20027;-63
2021/07/30 09:41:53;;;;;;;20.65;5.80;;;;;;;23.53;48.44;100630.66;5075774;28;20104;-62
2021/07/30 09:44:19;;;;;;;17.65;5.18;;;;;;;23.49;46.53;100624.56;5078777;28;20035;-62
2021/07/30 09:47:04;;;;;;;18.10;5.53;;;;;;;23.58;46.48;100623.19;5077466;28;20514;-64
2021/07/30 09:49:48;;;;;;;17.80;5.38;;;;;;;23.69;46.45;100625.31;5076614;28;20024;-64
2021/07/30 09:52:27;;;;;;;18.50;5.50;;;;;;;24.25;46.28;100617.78;5073202;28;20032;-65
2021/07/30 09:54:58;;;;;;;17.23;5.15;;;;;;;24.80;43.75;100618.25;5076012;28;20017;-64
2021/07/30 09:57:25;;;;;;;16.35;5.22;;;;;;;24.84;43.07;100601.81;5075094;28;20036;-65
2021/07/30 09:59:50;;;;;;;16.80;5.20;;;;;;;24.57;43.31;100601.56;5082027;28;20048;-64
2021/07/30 10:02:21;;;;;;;16.67;5.10;;;;;;;24.53;45.12;100594.56;5077482;28;20471;-64
2021/07/30 10:04:51;;;;;;;18.10;5.32;;;;;;;24.33;45.03;100603.81;5078299;28;20020;-65
2021/07/30 10:07:18;;;;;;;17.33;5.47;;;;;;;24.41;43.85;100606.09;5076172;28;20407;-65
2021/07/30 10:10:17;;;;;;;17.65;5.47;;;;;;;24.05;45.95;100588.34;5079026;28;20438;-65
2021/07/30 10:12:53;;;;;;;18.52;5.78;;;;;;;24.09;44.64;100595.31;5079562;28;20039;-65
2021/07/30 10:15:18;;;;;;;17.42;5.28;;;;;;;24.36;45.44;100588.34;5074245;28;20099;-65
2021/07/30 10:17:46;;;;;;;17.83;5.40;;;;;;;24.74;44.50;100578.09;5078644;28;20120;-67
2021/07/30 10:20:13;;;;;;;19.75;5.60;;;;;;;25.12;42.44;100583.03;5079494;28;20025;-69
2021/07/30 10:22:52;;;;;;;17.02;5.30;;;;;;;25.32;42.88;100582.72;5076579;28;20034;-68
2021/07/30 10:25:22;;;;;;;17.38;5.30;;;;;;;25.38;42.35;100571.53;5076682;28;20064;-69
2021/07/30 10:27:49;;;;;;;17.73;5.40;;;;;;;26.14;41.58;100565.88;5077872;28;20021;-66
2021/07/30 10:30:16;;;;;;;18.13;5.45;;;;;;;26.93;40.22;100562.41;5071604;28;20029;-62
2021/07/30 10:32:50;;;;;;;18.13;5.53;;;;;;;26.45;39.88;100562.03;5074915;28;20070;-63
2021/07/30 10:35:18;;;;;;;17.98;5.60;;;;;;;25.77;42.19;100565.53;5075562;28;20570;-61
2021/07/30 10:37:47;;;;;;;18.30;5.50;;;;;;;25.58;42.25;100566.69;5078631;28;20036;-65
2021/07/30 10:40:20;;;;;;;17.08;5.43;;;;;;;25.92;42.82;100564.53;5080075;28;20023;-63
2021/07/30 10:43:23;;;;;;;17.33;5.40;;;;;;;26.17;40.38;100568.38;5076398;28;20012;-63
2021/07/30 10:46:04;;;;;;;18.33;5.35;;;;;;;25.55;42.70;100556.94;5078698;28;20024;-66
2021/07/30 10:48:31;;;;;;;18.17;5.72;;;;;;;25.86;41.76;100560.41;5078472;28;20050;-64
2021/07/30 10:50:59;;;;;;;20.90;5.80;;;;;;;26.64;39.88;100548.09;5078457;28;20036;-62
2021/07/30 10:53:30;;;;;;;17.85;5.43;;;;;;;26.68;39.59;100548.78;5077087;28;20350;-65
2021/07/30 10:55:56;;;;;;;19.35;5.97;;;;;;;27.22;39.36;100550.53;5075994;28;20029;-62
2021/07/30 10:58:41;;;;;;;19.83;5.55;;;;;;;27.34;38.80;100549.69;5077463;28;20020;-66
2021/07/30 11:01:11;;;;;;;17.63;5.70;;;;;;;27.05;38.44;100538.13;5074011;28;20348;-64
2021/07/30 11:03:56;;;;;;;18.27;5.70;;;;;;;26.70;39.89;100530.59;5075239;28;20080;-69
2021/07/30 11:06:26;;;;;;;17.85;5.35;;;;;;;26.53;40.25;100520.84;5074805;28;20416;-66
2021/07/30 11:11:51;;;;;;;17.40;5.30;;;;;;;26.51;40.59;100523.69;5075941;28;20552;-64
2021/07/30 11:14:21;;;;;;;18.70;5.50;;;;;;;26.19;40.14;100521.28;5077647;28;20460;-64
2021/07/30 11:16:49;;;;;;;17.65;5.30;;;;;;;25.95;40.61;100536.41;5074588;28;20028;-63